Time;durP1;ratioP1;P1;durP2;ratioP2;P2;SDS_P1;SDS_P2;PMS_P1;PMS_P2;Temp;Humidity;BMP_temperature;BMP_pressure;BME280_temperature;BME280_humidity;BME280_pressure;Samples;Min_cycle;Max_cycle;Signal;HPM_P1;HPM_P2
2021/12/08 00:02:49;;;;;;;;;;;;;;;-0.92;100.00;93734.75;10404702;28;19917;-74
2021/12/08 00:07:50;;;;;;;;;;;;;;;-1.00;100.00;93737.69;10405205;28;20442;-75
2021/12/08 00:13:07;;;;;;;;;;;;;;;-0.93;100.00;93745.53;10405358;28;19913;-74
2021/12/08 00:18:09;;;;;;;;;;;;;;;-1.08;100.00;93754.63;10404023;28;19913;-75
2021/12/08 00:23:09;;;;;;;;;;;;;;;-1.19;100.00;93760.69;10404387;28;20389;-74
2021/12/08 00:28:11;;;;;;;;;;;;;;;-1.05;100.00;93766.56;10403268;28;19920;-75
2021/12/08 00:33:12;;;;;;;;;;;;;;;-1.08;100.00;93762.53;10387568;28;20299;-75
2021/12/08 00:38:13;;;;;;;;;;;;;;;-1.11;100.00;93772.75;10402833;28;19925;-78
2021/12/08 00:43:14;;;;;;;;;;;;;;;-1.35;100.00;93767.41;10403352;28;19921;-74
2021/12/08 00:48:14;;;;;;;;;;;;;;;-1.36;100.00;93775.53;10402871;28;19913;-74
2021/12/08 00:53:15;;;;;;;;;;;;;;;-1.43;100.00;93781.66;10403054;28;19963;-74
2021/12/08 00:58:16;;;;;;;;;;;;;;;-1.25;100.00;93790.59;10402248;28;19920;-77
2021/12/08 01:03:17;;;;;;;;;;;;;;;-1.55;100.00;93783.44;10402103;28;19917;-76
2021/12/08 01:08:18;;;;;;;;;;;;;;;-1.31;100.00;93778.28;10402676;28;19978;-75
2021/12/08 01:13:20;;;;;;;;;;;;;;;-1.33;100.00;93782.97;10402715;28;19986;-74
2021/12/08 01:18:21;;;;;;;;;;;;;;;-1.25;100.00;93790.59;10401244;28;20490;-74
2021/12/08 01:23:22;;;;;;;;;;;;;;;-1.41;100.00;93789.34;10401342;28;20047;-73
2021/12/08 01:28:23;;;;;;;;;;;;;;;-1.28;100.00;93775.22;10402251;28;19921;-79
2021/12/08 01:33:24;;;;;;;;;;;;;;;-1.05;100.00;93782.41;10401167;28;20391;-74
2021/12/08 01:38:25;;;;;;;;;;;;;;;-1.11;100.00;93793.84;10398997;28;19921;-74
2021/12/08 01:43:27;;;;;;;;;;;;;;;-1.04;100.00;93789.28;10360380;28;19922;-75
2021/12/08 01:48:30;;;;;;;;;;;;;;;-1.13;100.00;93804.63;10363303;28;19928;-75
2021/12/08 01:53:30;;;;;;;;;;;;;;;-1.05;100.00;93806.13;10361821;28;20355;-74
2021/12/08 01:58:31;;;;;;;;;;;;;;;-1.19;100.00;93799.44;10361261;28;19918;-77
2021/12/08 02:03:32;;;;;;;;;;;;;;;-1.27;100.00;93814.53;10361218;28;20335;-74
2021/12/08 02:08:34;;;;;;;;;;;;;;;-1.19;100.00;93813.41;10375728;28;19918;-73
2021/12/08 02:13:37;;;;;;;;;;;;;;;-1.18;100.00;93807.13;10375757;28;20455;-73
2021/12/08 02:18:38;;;;;;;;;;;;;;;-1.15;100.00;93814.56;10359642;28;19992;-76
2021/12/08 02:23:38;;;;;;;;;;;;;;;-1.22;100.00;93819.94;10375925;28;19921;-74
2021/12/08 02:28:39;;;;;;;;;;;;;;;-1.02;100.00;93829.41;10375580;28;19922;-73
2021/12/08 02:49:38;;;;;;;;;;;;;;;-0.80;100.00;93840.25;10360060;28;19960;-75
2021/12/08 02:54:43;;;;;;;;;;;;;;;-0.91;100.00;93846.31;10375170;28;19925;-74
2021/12/08 02:59:45;;;;;;;;;;;;;;;-0.88;100.00;93843.22;10380514;28;19968;-76
2021/12/08 03:04:45;;;;;;;;;;;;;;;-0.80;100.00;93847.38;10367672;28;19968;-81
2021/12/08 03:09:45;;;;;;;;;;;;;;;-0.88;100.00;93857.22;10381847;28;20493;-74
2021/12/08 03:14:46;;;;;;;;;;;;;;;-0.75;100.00;93855.44;10366005;28;19921;-76
2021/12/08 03:19:46;;;;;;;;;;;;;;;-0.71;100.00;93865.31;10367369;28;19920;-72
2021/12/08 03:24:48;;;;;;;;;;;;;;;-0.65;100.00;93858.34;10381011;28;19925;-72
2021/12/08 03:34:51;;;;;;;;;;;;;;;-0.87;100.00;93877.28;10366276;28;19913;-76
2021/12/08 03:39:52;;;;;;;;;;;;;;;-0.87;100.00;93877.28;10396352;28;19921;-74
2021/12/08 03:44:55;;;;;;;;;;;;;;;-0.90;100.00;93882.22;10404949;28;19929;-74
2021/12/08 03:49:58;;;;;;;;;;;;;;;-0.95;100.00;93887.34;10410458;28;20036;-75
2021/12/08 03:54:59;;;;;;;;;;;;;;;-0.86;100.00;93893.94;10390365;28;19917;-75
2021/12/08 03:59:59;;;;;;;;;;;;;;;-0.84;100.00;93901.63;10400669;28;20303;-77
2021/12/08 04:04:59;;;;;;;;;;;;;;;-0.76;100.00;93906.59;10380962;28;20019;-74
2021/12/08 04:10:00;;;;;;;;;;;;;;;-0.65;100.00;93907.69;10366714;28;20430;-74
2021/12/08 04:15:03;;;;;;;;;;;;;;;-0.60;100.00;93910.44;10382920;28;20354;-74
2021/12/08 04:20:17;;;;;;;;;;;;;;;-0.55;100.00;93907.94;10383084;28;19932;-77
2021/12/08 04:25:21;;;;;;;;;;;;;;;-0.59;100.00;93912.03;10384050;28;19929;-76
2021/12/08 04:30:27;;;;;;;;;;;;;;;-0.68;100.00;93922.13;10383522;28;20441;-75
2021/12/08 04:35:28;;;;;;;;;;;;;;;-0.80;100.00;93926.53;10381756;28;19918;-76
2021/12/08 04:40:37;;;;;;;;;;;;;;;-0.70;100.00;93932.06;10380363;28;20002;-73
2021/12/08 04:46:41;;;;;;;;;;;;;;;-0.74;100.00;93939.66;10363578;28;20376;-73
2021/12/08 04:51:21;;;;;;;;;;;;;;;-1.01;100.00;93941.78;10351213;28;20012;-73
2021/12/08 05:12:09;;;;;;;;;;;;;;;-0.96;100.00;93978.84;10390325;28;19936;-77
2021/12/08 05:17:13;;;;;;;;;;;;;;;-0.93;100.00;93986.31;10401244;28;19949;-76
2021/12/08 05:22:20;;;;;;;;;;;;;;;-0.89;100.00;93976.94;10376328;28;20005;-75
2021/12/08 05:27:21;;;;;;;;;;;;;;;-0.74;100.00;93989.78;10358410;28;20576;-78
2021/12/08 05:32:22;;;;;;;;;;;;;;;-1.08;100.00;93985.88;10400658;28;19913;-76
2021/12/08 05:37:23;;;;;;;;;;;;;;;-0.84;100.00;93984.19;10400566;28;20474;-78
2021/12/08 05:42:27;;;;;;;;;;;;;;;-0.76;100.00;93991.00;10400967;28;20019;-77
2021/12/08 05:47:29;;;;;;;;;;;;;;;-0.75;100.00;94005.81;10400853;28;19920;-79
2021/12/08 05:52:30;;;;;;;;;;;;;;;-0.83;100.00;94006.13;10401071;28;20004;-80
2021/12/08 05:57:34;;;;;;;;;;;;;;;-0.78;100.00;94003.59;10399895;28;20359;-80
2021/12/08 06:02:35;;;;;;;;;;;;;;;-0.91;100.00;94017.75;10399058;28;19933;-78
2021/12/08 06:07:36;;;;;;;;;;;;;;;-1.08;100.00;94023.59;10400479;28;20310;-78
2021/12/08 06:12:36;;;;;;;;;;;;;;;-0.99;100.00;94039.13;10400420;28;19913;-79
2021/12/08 06:17:37;;;;;;;;;;;;;;;-0.90;100.00;94049.19;10399085;28;19921;-76
2021/12/08 06:22:38;;;;;;;;;;;;;;;-0.79;100.00;94054.78;10400009;28;19929;-78
2021/12/08 06:27:39;;;;;;;;;;;;;;;-0.76;100.00;94059.63;10398859;28;20371;-76
2021/12/08 06:32:39;;;;;;;;;;;;;;;-0.73;100.00;94065.25;10404556;28;19913;-75
2021/12/08 06:37:40;;;;;;;;;;;;;;;-0.55;100.00;94061.00;10406630;28;19921;-77
2021/12/08 06:42:42;;;;;;;;;;;;;;;-0.82;100.00;94055.19;10406617;28;19921;-80
2021/12/08 06:47:43;;;;;;;;;;;;;;;-0.76;100.00;94047.22;10530618;23;19964;-76
2021/12/08 06:52:43;;;;;;;;;;;;;;;-0.70;100.00;94053.44;10409586;28;20015;-78
2021/12/08 06:57:56;;;;;;;;;;;;;;;-0.72;100.00;94061.59;10385288;28;19956;-80
2021/12/08 07:03:07;;;;;;;;;;;;;;;-0.77;100.00;94066.69;10365100;28;19922;-75
2021/12/08 07:08:09;;;;;;;;;;;;;;;-0.80;100.00;94059.22;10365034;28;19956;-78
2021/12/08 07:13:16;;;;;;;;;;;;;;;-0.80;100.00;94074.25;10365401;28;19920;-77
2021/12/08 07:18:26;;;;;;;;;;;;;;;-0.81;100.00;94077.91;10366162;28;19947;-77
2021/12/08 07:23:43;;;;;;;;;;;;;;;-0.85;100.00;94088.13;10365535;28;19933;-78
2021/12/08 07:28:43;;;;;;;;;;;;;;;-0.87;100.00;94093.59;10369321;28;19920;-78
2021/12/08 07:33:44;;;;;;;;;;;;;;;-0.87;100.00;94104.13;10408523;28;19917;-76
2021/12/08 07:38:46;;;;;;;;;;;;;;;-1.01;100.00;94104.50;10405576;28;19913;-74
2021/12/08 07:43:49;;;;;;;;;;;;;;;-0.80;100.00;94108.56;10403908;28;19924;-74
2021/12/08 07:48:55;;;;;;;;;;;;;;;-0.70;100.00;94111.50;10405507;28;19925;-77
2021/12/08 07:53:55;;;;;;;;;;;;;;;-0.54;100.00;94118.84;10407389;28;19913;-77
2021/12/08 07:58:58;;;;;;;;;;;;;;;-0.60;100.00;94118.91;10400734;28;19917;-81
2021/12/08 08:03:59;;;;;;;;;;;;;;;-0.57;100.00;94118.50;10363923;28;20445;-74
2021/12/08 08:09:01;;;;;;;;;;;;;;;-0.53;100.00;94125.75;10364270;28;19920;-77
2021/12/08 08:14:03;;;;;;;;;;;;;;;-0.52;100.00;94129.19;10362527;28;20419;-78
2021/12/08 08:19:09;;;;;;;;;;;;;;;-0.50;100.00;94139.50;10385643;28;20386;-73
2021/12/08 08:24:10;;;;;;;;;;;;;;;-0.21;100.00;94130.88;10403522;28;19921;-71
2021/12/08 08:29:11;;;;;;;;;;;;;;;-0.13;100.00;94137.69;10403408;28;19975;-77
2021/12/08 08:34:12;;;;;;;;;;;;;;;-0.04;100.00;94132.94;10404299;28;19993;-75
2021/12/08 08:39:12;;;;;;;;;;;;;;;-0.13;100.00;94132.41;10405025;28;19920;-79
2021/12/08 08:44:19;;;;;;;;;;;;;;;-0.15;100.00;94131.00;10402398;28;19924;-76
2021/12/08 08:49:21;;;;;;;;;;;;;;;-0.12;100.00;94135.88;10402358;28;19952;-73
2021/12/08 08:54:23;;;;;;;;;;;;;;;-0.12;100.00;94125.31;10403565;28;19913;-74
2021/12/08 08:59:25;;;;;;;;;;;;;;;-0.20;100.00;94126.41;10401504;28;20004;-74
2021/12/08 09:04:31;;;;;;;;;;;;;;;-0.19;100.00;94123.53;10402148;28;19917;-75
2021/12/08 09:09:34;;;;;;;;;;;;;;;-0.30;100.00;94129.56;10401254;28;19917;-74
2021/12/08 09:14:37;;;;;;;;;;;;;;;-0.21;100.00;94120.31;10400973;28;19913;-74
2021/12/08 09:19:43;;;;;;;;;;;;;;;-0.13;100.00;94113.13;10401475;28;19956;-74
2021/12/08 09:24:50;;;;;;;;;;;;;;;-0.02;100.00;94099.97;10400961;28;19917;-73
2021/12/08 09:29:55;;;;;;;;;;;;;;;0.01;100.00;94079.44;10400890;28;19960;-73
2021/12/08 09:34:58;;;;;;;;;;;;;;;0.04;100.00;94082.41;10400507;28;20623;-77
2021/12/08 09:40:04;;;;;;;;;;;;;;;0.12;100.00;94090.03;10400023;28;20424;-72
2021/12/08 09:45:11;;;;;;;;;;;;;;;0.05;100.00;94089.31;10400057;28;19917;-74
2021/12/08 09:50:12;;;;;;;;;;;;;;;0.25;100.00;94083.78;10399653;28;20413;-74
2021/12/08 09:55:15;;;;;;;;;;;;;;;0.22;100.00;94084.19;10400930;28;19920;-74
2021/12/08 10:00:20;;;;;;;;;;;;;;;0.34;100.00;94084.25;10400033;28;20023;-78
2021/12/08 10:05:21;;;;;;;;;;;;;;;0.45;100.00;94075.53;10403596;28;20391;-74
2021/12/08 10:10:21;;;;;;;;;;;;;;;0.41;100.00;94090.25;10400879;28;19920;-73
2021/12/08 10:15:22;;;;;;;;;;;;;;;0.61;100.00;94086.50;10398770;28;20014;-76
2021/12/08 10:20:34;;;;;;;;;;;;;;;0.76;100.00;94094.00;10399233;28;19913;-75
2021/12/08 10:25:36;;;;;;;;;;;;;;;0.70;100.00;94079.84;10383168;28;20266;-76
2021/12/08 10:30:41;;;;;;;;;;;;;;;0.81;100.00;94078.25;10399589;28;20412;-75
2021/12/08 10:35:46;;;;;;;;;;;;;;;0.80;100.00;94074.81;10399010;28;19948;-77
2021/12/08 10:40:57;;;;;;;;;;;;;;;1.27;100.00;94067.91;10400514;28;20001;-75
2021/12/08 10:46:08;;;;;;;;;;;;;;;1.45;100.00;94075.72;10399421;28;19928;-76
2021/12/08 10:56:40;;;;;;;;;;;;;;;2.09;100.00;94061.59;10401256;28;20345;-80
2021/12/08 11:01:40;;;;;;;;;;;;;;;2.53;100.00;94059.22;10398763;28;19913;-74
2021/12/08 11:06:41;;;;;;;;;;;;;;;4.01;100.00;94052.78;10398558;28;19917;-79
2021/12/08 11:11:43;;;;;;;;;;;;;;;5.06;100.00;94052.41;10397853;28;19913;-77
2021/12/08 11:16:44;;;;;;;;;;;;;;;6.71;100.00;94063.81;10398463;28;19917;-72
2021/12/08 11:21:47;;;;;;;;;;;;;;;7.15;100.00;94063.31;10406465;28;19971;-73
2021/12/08 11:26:49;;;;;;;;;;;;;;;7.80;100.00;94060.00;10405361;28;19913;-79
2021/12/08 11:31:52;;;;;;;;;;;;;;;6.80;100.00;94072.13;10405347;28;19920;-75
2021/12/08 11:36:55;;;;;;;;;;;;;;;5.73;100.00;94066.16;10405039;28;19913;-73
2021/12/08 11:41:59;;;;;;;;;;;;;;;6.70;100.00;94064.09;10405539;28;19999;-77
2021/12/08 11:47:02;;;;;;;;;;;;;;;6.74;100.00;94075.84;10411651;28;20620;-73
2021/12/08 11:52:09;;;;;;;;;;;;;;;5.69;100.00;94082.94;10404642;28;20396;-73
2021/12/08 11:57:13;;;;;;;;;;;;;;;4.27;100.00;94083.94;10405461;28;19913;-74
2021/12/08 12:02:14;;;;;;;;;;;;;;;3.19;100.00;94095.81;10403622;28;19921;-73
2021/12/08 12:07:15;;;;;;;;;;;;;;;2.39;100.00;94095.84;10403976;28;19948;-74
2021/12/08 12:12:16;;;;;;;;;;;;;;;2.08;100.00;94107.72;10403271;28;19922;-73
2021/12/08 12:17:16;;;;;;;;;;;;;;;1.65;100.00;94106.34;10403493;28;19971;-74
2021/12/08 12:22:31;;;;;;;;;;;;;;;1.46;100.00;94109.09;10403472;28;20432;-74
2021/12/08 12:27:45;;;;;;;;;;;;;;;1.39;100.00;94121.66;10402926;28;19913;-73
2021/12/08 12:32:48;;;;;;;;;;;;;;;1.23;100.00;94115.22;10402414;28;19916;-76
2021/12/08 12:38:02;;;;;;;;;;;;;;;1.26;100.00;94108.66;10395831;28;19955;-76
2021/12/08 12:43:03;;;;;;;;;;;;;;;1.01;100.00;94114.97;10361597;28;19991;-74
2021/12/08 12:48:09;;;;;;;;;;;;;;;0.99;100.00;94122.31;10367462;28;19929;-76
2021/12/08 12:53:28;;;;;;;;;;;;;;;0.89;100.00;94141.41;10362266;28;20399;-76
2021/12/08 12:58:46;;;;;;;;;;;;;;;0.82;100.00;94138.88;10361073;28;19928;-80
2021/12/08 13:03:51;;;;;;;;;;;;;;;0.84;100.00;94142.09;10377663;28;19922;-78
2021/12/08 13:08:51;;;;;;;;;;;;;;;0.91;100.00;94146.47;10345200;28;19920;-74
2021/12/08 13:13:54;;;;;;;;;;;;;;;0.90;100.00;94145.66;10361763;28;19921;-73
2021/12/08 13:18:56;;;;;;;;;;;;;;;0.69;100.00;94147.00;10360676;28;20315;-74
2021/12/08 13:23:56;;;;;;;;;;;;;;;0.86;100.00;94141.84;10361390;28;19921;-74
2021/12/08 13:29:15;;;;;;;;;;;;;;;0.83;100.00;94158.97;10375890;28;19987;-74
2021/12/08 13:34:22;;;;;;;;;;;;;;;0.62;100.00;94149.72;10359929;28;19917;-74
2021/12/08 13:39:22;;;;;;;;;;;;;;;0.33;100.00;94159.28;10374595;28;19971;-75
2021/12/08 13:44:22;;;;;;;;;;;;;;;0.33;100.00;94167.22;10360841;28;20456;-76
2021/12/08 13:49:35;;;;;;;;;;;;;;;0.05;100.00;94180.97;10400154;28;20012;-74
2021/12/08 13:54:37;;;;;;;;;;;;;;;-0.26;100.00;94164.25;10399621;28;20004;-74
2021/12/08 13:59:50;;;;;;;;;;;;;;;0.01;100.00;94172.69;10401555;28;19917;-75
2021/12/08 14:05:01;;;;;;;;;;;;;;;0.29;100.00;94173.97;10400092;28;19917;-77
2021/12/08 14:10:08;;;;;;;;;;;;;;;-0.30;100.00;94187.66;10395004;28;19987;-74
2021/12/08 14:15:09;;;;;;;;;;;;;;;-0.39;100.00;94181.03;10375031;28;19967;-77
2021/12/08 14:20:30;;;;;;;;;;;;;;;-0.45;100.00;94188.00;10375204;28;20008;-79
2021/12/08 14:25:37;;;;;;;;;;;;;;;-0.25;100.00;94203.66;10377428;28;19917;-77
2021/12/08 14:30:44;;;;;;;;;;;;;;;-0.42;100.00;94211.34;10398199;28;19920;-75
2021/12/08 14:35:52;;;;;;;;;;;;;;;-0.55;100.00;94216.72;10398236;28;19917;-75
2021/12/08 14:40:53;;;;;;;;;;;;;;;-0.58;100.00;94215.31;10382647;28;19963;-75
2021/12/08 14:45:53;;;;;;;;;;;;;;;-0.61;100.00;94209.69;10399351;28;20004;-74
2021/12/08 14:50:54;;;;;;;;;;;;;;;-0.76;100.00;94210.78;10400287;28;20331;-74
2021/12/08 14:55:54;;;;;;;;;;;;;;;-0.49;100.00;94207.13;10406081;28;19914;-77
2021/12/08 15:00:54;;;;;;;;;;;;;;;-0.30;100.00;94205.34;10406193;28;19913;-76
2021/12/08 15:05:55;;;;;;;;;;;;;;;-0.62;100.00;94216.78;10405915;28;19940;-74
2021/12/08 15:10:55;;;;;;;;;;;;;;;-0.66;100.00;94223.50;10405990;28;19917;-77
2021/12/08 15:15:56;;;;;;;;;;;;;;;-0.62;100.00;94219.41;10406321;28;19963;-77
2021/12/08 15:21:02;;;;;;;;;;;;;;;-0.57;100.00;94216.94;10405441;28;20291;-74
2021/12/08 15:26:03;;;;;;;;;;;;;;;-0.62;100.00;94210.69;10406756;28;19917;-77
2021/12/08 15:31:05;;;;;;;;;;;;;;;-0.74;100.00;94210.56;10404907;28;19933;-76
2021/12/08 15:36:10;;;;;;;;;;;;;;;-0.69;100.00;94208.91;10404692;28;19917;-75
2021/12/08 15:41:13;;;;;;;;;;;;;;;-0.76;100.00;94204.72;10404479;28;20353;-75
2021/12/08 15:46:14;;;;;;;;;;;;;;;-0.70;100.00;94219.69;10403816;28;19917;-74
2021/12/08 15:51:14;;;;;;;;;;;;;;;-0.51;100.00;94228.47;10404080;28;20322;-74
2021/12/08 15:56:16;;;;;;;;;;;;;;;-0.39;100.00;94229.38;10404047;28;19971;-78
2021/12/08 16:01:18;;;;;;;;;;;;;;;-0.63;100.00;94232.81;10407335;28;19920;-77
2021/12/08 16:06:25;;;;;;;;;;;;;;;-0.60;100.00;94238.50;10379582;28;19972;-75
2021/12/08 16:11:30;;;;;;;;;;;;;;;-0.41;100.00;94243.81;10364531;28;19968;-77
2021/12/08 16:16:30;;;;;;;;;;;;;;;-0.13;100.00;94234.63;10396503;28;19917;-78
2021/12/08 16:21:31;;;;;;;;;;;;;;;-0.07;100.00;94237.19;10379277;28;19921;-74
2021/12/08 16:26:31;;;;;;;;;;;;;;;-0.12;100.00;94249.44;10371815;28;19917;-75
2021/12/08 16:31:32;;;;;;;;;;;;;;;-0.08;100.00;94250.63;10391339;28;19975;-76
2021/12/08 16:36:32;;;;;;;;;;;;;;;0.10;100.00;94241.91;10400683;28;19913;-76
2021/12/08 16:46:51;;;;;;;;;;;;;;;0.31;100.00;94248.56;10384718;28;19917;-75
2021/12/08 16:51:51;;;;;;;;;;;;;;;0.33;100.00;94265.00;10358582;28;19925;-74
2021/12/08 16:56:52;;;;;;;;;;;;;;;0.13;100.00;94266.03;10375160;28;19971;-75
2021/12/08 17:01:52;;;;;;;;;;;;;;;0.16;100.00;94265.59;10375979;28;19963;-75
2021/12/08 17:06:52;;;;;;;;;;;;;;;-0.02;100.00;94276.16;10380352;28;20374;-74
2021/12/08 17:11:53;;;;;;;;;;;;;;;0.02;100.00;94268.59;10400054;28;19913;-79
2021/12/08 17:16:53;;;;;;;;;;;;;;;0.02;100.00;94264.13;10399343;28;19917;-78
2021/12/08 17:21:53;;;;;;;;;;;;;;;0.17;100.00;94259.28;10400228;28;19920;-73
2021/12/08 17:26:53;;;;;;;;;;;;;;;0.21;100.00;94275.53;10373514;28;19914;-79
2021/12/08 17:31:57;;;;;;;;;;;;;;;0.26;100.00;94274.84;10360478;28;20364;-78
2021/12/08 17:36:57;;;;;;;;;;;;;;;0.17;100.00;94276.97;10359270;28;20384;-74
2021/12/08 17:42:01;;;;;;;;;;;;;;;0.27;100.00;94281.75;10378032;28;19920;-79
2021/12/08 17:47:01;;;;;;;;;;;;;;;0.16;100.00;94286.72;10397493;28;19913;-74
2021/12/08 17:52:02;;;;;;;;;;;;;;;0.19;100.00;94288.13;10398818;28;20149;-76
2021/12/08 17:57:03;;;;;;;;;;;;;;;0.13;100.00;94295.09;10398341;28;19913;-75
2021/12/08 18:02:03;;;;;;;;;;;;;;;0.06;100.00;94286.44;10399031;28;19963;-79
2021/12/08 18:07:04;;;;;;;;;;;;;;;0.00;100.00;94268.84;10399224;28;20274;-74
2021/12/08 18:12:04;;;;;;;;;;;;;;;-0.18;100.00;94274.88;10398445;28;19917;-75
2021/12/08 18:17:07;;;;;;;;;;;;;;;-0.41;100.00;94280.78;10374780;28;20012;-75
2021/12/08 18:22:07;;;;;;;;;;;;;;;-0.44;100.00;94294.41;10382948;28;19924;-75
2021/12/08 18:27:08;;;;;;;;;;;;;;;-0.49;100.00;94292.38;10399186;28;19919;-75
2021/12/08 18:32:08;;;;;;;;;;;;;;;-0.51;100.00;94297.09;10406359;28;19913;-76
2021/12/08 18:37:08;;;;;;;;;;;;;;;-0.71;100.00;94305.97;10407086;28;19913;-76
2021/12/08 18:42:11;;;;;;;;;;;;;;;-0.83;100.00;94301.59;10390032;28;19921;-76
2021/12/08 18:47:11;;;;;;;;;;;;;;;-0.75;100.00;94306.59;10405609;28;19913;-75
2021/12/08 18:52:11;;;;;;;;;;;;;;;-0.80;100.00;94316.97;10406864;28;20311;-76
2021/12/08 18:57:12;;;;;;;;;;;;;;;-0.82;100.00;94325.13;10405788;28;19920;-79
2021/12/08 19:02:12;;;;;;;;;;;;;;;-0.82;100.00;94325.13;10391968;28;20044;-77
2021/12/08 19:07:12;;;;;;;;;;;;;;;-0.87;100.00;94341.56;10382315;28;20015;-76
2021/12/08 19:12:13;;;;;;;;;;;;;;;-1.01;100.00;94331.31;10365107;28;19920;-76
2021/12/08 19:17:13;;;;;;;;;;;;;;;-0.99;100.00;94335.34;10364720;28;19922;-74
2021/12/08 19:22:14;;;;;;;;;;;;;;;-1.02;100.00;94333.13;10387024;28;19971;-75
2021/12/08 19:27:14;;;;;;;;;;;;;;;-1.07;100.00;94332.97;10405353;28;19924;-79
2021/12/08 19:32:14;;;;;;;;;;;;;;;-1.09;100.00;94320.00;10400091;28;20306;-73
2021/12/08 19:37:15;;;;;;;;;;;;;;;-1.23;100.00;94328.97;10380457;28;19913;-79
2021/12/08 19:42:18;;;;;;;;;;;;;;;-1.16;100.00;94339.50;10364507;28;19925;-74
2021/12/08 19:47:18;;;;;;;;;;;;;;;-1.28;100.00;94337.50;10363588;28;19917;-77
2021/12/08 19:52:19;;;;;;;;;;;;;;;-1.46;100.00;94334.75;10377407;28;19922;-76
2021/12/08 19:57:20;;;;;;;;;;;;;;;-1.50;100.00;94331.72;10365242;28;20084;-74
2021/12/08 20:02:21;;;;;;;;;;;;;;;-1.58;100.00;94331.94;10361836;28;20410;-78
2021/12/08 20:07:21;;;;;;;;;;;;;;;-1.64;100.00;94323.03;10362239;28;19914;-75
2021/12/08 20:12:24;;;;;;;;;;;;;;;-1.81;100.00;94327.16;10362880;28;19913;-75
2021/12/08 20:17:25;;;;;;;;;;;;;;;-1.89;100.00;94318.44;10379892;28;20635;-74
2021/12/08 20:22:25;;;;;;;;;;;;;;;-1.84;100.00;94324.91;10402962;28;19947;-80
2021/12/08 20:27:25;;;;;;;;;;;;;;;-1.82;100.00;94320.25;10378865;28;20051;-75
2021/12/08 20:32:27;;;;;;;;;;;;;;;-1.91;100.00;94331.00;10361865;28;19914;-82
2021/12/08 20:37:28;;;;;;;;;;;;;;;-1.91;100.00;94333.63;10379325;28;20465;-79
2021/12/08 20:42:29;;;;;;;;;;;;;;;-1.83;100.00;94334.44;10362072;28;20029;-75
2021/12/08 20:47:29;;;;;;;;;;;;;;;-1.83;100.00;94323.91;10378792;28;20280;-74
2021/12/08 20:52:30;;;;;;;;;;;;;;;-1.98;100.00;94338.13;10378084;28;19983;-77
2021/12/08 20:57:33;;;;;;;;;;;;;;;-2.12;100.00;94347.84;10363609;28;19961;-76
2021/12/08 21:02:34;;;;;;;;;;;;;;;-2.22;100.00;94346.63;10400109;28;19979;-76
2021/12/08 21:07:35;;;;;;;;;;;;;;;-2.10;100.00;94340.53;10401864;28;20007;-79
2021/12/08 21:12:36;;;;;;;;;;;;;;;-2.12;100.00;94347.84;10403491;28;19917;-80
2021/12/08 21:17:42;;;;;;;;;;;;;;;-2.44;100.00;94345.03;10401138;28;20149;-76
2021/12/08 21:22:42;;;;;;;;;;;;;;;-2.36;100.00;94336.09;10402805;28;20008;-76
2021/12/08 21:27:43;;;;;;;;;;;;;;;-2.44;100.00;94342.38;10402931;28;19913;-74
2021/12/08 21:32:43;;;;;;;;;;;;;;;-2.37;100.00;94334.50;10400457;28;20023;-75
2021/12/08 21:37:44;;;;;;;;;;;;;;;-2.59;100.00;94337.31;10401479;28;19913;-74
2021/12/08 21:42:44;;;;;;;;;;;;;;;-2.61;100.00;94334.09;10402500;28;19917;-75
2021/12/08 21:47:45;;;;;;;;;;;;;;;-2.78;100.00;94341.56;10400435;28;19925;-78
2021/12/08 21:52:45;;;;;;;;;;;;;;;-2.75;100.00;94338.53;10401834;28;20014;-78
2021/12/08 21:57:46;;;;;;;;;;;;;;;-2.66;100.00;94335.69;10400978;28;19921;-82
2021/12/08 22:02:46;;;;;;;;;;;;;;;-2.56;100.00;94336.09;10399839;28;19983;-76
2021/12/08 22:07:46;;;;;;;;;;;;;;;-2.59;100.00;94347.03;10401746;28;19913;-75
2021/12/08 22:12:47;;;;;;;;;;;;;;;-2.61;100.00;94347.25;10401152;28;19956;-77
2021/12/08 22:17:50;;;;;;;;;;;;;;;-2.64;100.00;94349.44;10400102;28;19913;-76
2021/12/08 22:22:51;;;;;;;;;;;;;;;-2.79;100.00;94342.56;10384066;28;20294;-74
2021/12/08 22:27:52;;;;;;;;;;;;;;;-2.75;100.00;94338.53;10400026;28;19917;-75
2021/12/08 22:32:52;;;;;;;;;;;;;;;-2.90;100.00;94334.44;10400382;28;19920;-76
2021/12/08 22:37:52;;;;;;;;;;;;;;;-2.84;100.00;94325.75;10401221;28;19913;-77
2021/12/08 22:42:54;;;;;;;;;;;;;;;-2.88;100.00;94337.69;10399810;28;19920;-77
2021/12/08 22:47:55;;;;;;;;;;;;;;;-2.99;100.00;94326.72;10360381;28;20370;-76
2021/12/08 22:52:56;;;;;;;;;;;;;;;-3.07;100.00;94336.63;10359075;28;20008;-75
2021/12/08 22:57:56;;;;;;;;;;;;;;;-3.19;100.00;94336.41;10360802;28;20264;-77
2021/12/08 23:02:57;;;;;;;;;;;;;;;-3.19;100.00;94341.66;10358583;28;20009;-76
2021/12/08 23:08:01;;;;;;;;;;;;;;;-3.24;100.00;94358.00;10358629;28;19913;-75
2021/12/08 23:13:07;;;;;;;;;;;;;;;-3.15;100.00;94367.34;10360423;28;19914;-76
2021/12/08 23:18:07;;;;;;;;;;;;;;;-3.12;100.00;94359.06;10349625;28;20004;-76
2021/12/08 23:23:07;;;;;;;;;;;;;;;-3.05;100.00;94355.66;10367043;28;20354;-76
2021/12/08 23:28:08;;;;;;;;;;;;;;;-3.05;100.00;94364.34;10365465;28;20016;-75
2021/12/08 23:33:09;;;;;;;;;;;;;;;-3.13;100.00;94373.19;10399429;28;19913;-78
2021/12/08 23:38:17;;;;;;;;;;;;;;;-3.27;100.00;94367.06;10388976;28;19917;-79
2021/12/08 23:43:17;;;;;;;;;;;;;;;-3.28;100.00;94367.28;10405540;28;19959;-73
2021/12/08 23:48:17;;;;;;;;;;;;;;;-3.24;100.00;94381.66;10405886;28;20380;-78
2021/12/08 23:53:18;;;;;;;;;;;;;;;-3.21;100.00;94386.53;10405734;28;20032;-74
2021/12/08 23:58:25;;;;;;;;;;;;;;;-3.20;100.00;94384.69;10405204;28;19917;-76
